sensor_id;sensor_type;location;lat;lon;timestamp;P1;durP1;ratioP1;P2;durP2;ratioP2
11709;SDS011;5911;51.036;6.972;2023-02-23T00:01:51;38.57;;;32.73;;
11709;SDS011;5911;51.036;6.972;2023-02-23T00:04:20;41.37;;;33.87;;
11709;SDS011;5911;51.036;6.972;2023-02-23T00:06:49;37.83;;;32.47;;
11709;SDS011;5911;51.036;6.972;2023-02-23T00:09:17;38.50;;;32.57;;
11709;SDS011;5911;51.036;6.972;2023-02-23T00:11:51;38.10;;;32.67;;
11709;SDS011;5911;51.036;6.972;2023-02-23T00:14:22;39.70;;;33.67;;
11709;SDS011;5911;51.036;6.972;2023-02-23T00:16:54;39.23;;;33.27;;
11709;SDS011;5911;51.036;6.972;2023-02-23T00:19:23;39.80;;;33.07;;
11709;SDS011;5911;51.036;6.972;2023-02-23T00:21:51;36.80;;;32.27;;
11709;SDS011;5911;51.036;6.972;2023-02-23T00:24:20;37.00;;;33.03;;
11709;SDS011;5911;51.036;6.972;2023-02-23T00:26:48;37.40;;;32.07;;
11709;SDS011;5911;51.036;6.972;2023-02-23T00:29:19;37.03;;;33.03;;
11709;SDS011;5911;51.036;6.972;2023-02-23T00:31:48;41.30;;;34.77;;
11709;SDS011;5911;51.036;6.972;2023-02-23T00:34:18;40.37;;;33.57;;
11709;SDS011;5911;51.036;6.972;2023-02-23T00:36:48;37.43;;;33.37;;
11709;SDS011;5911;51.036;6.972;2023-02-23T00:39:17;39.50;;;34.33;;
11709;SDS011;5911;51.036;6.972;2023-02-23T00:41:47;40.13;;;34.13;;
11709;SDS011;5911;51.036;6.972;2023-02-23T00:44:15;40.97;;;35.37;;
11709;SDS011;5911;51.036;6.972;2023-02-23T00:46:44;40.20;;;34.33;;
11709;SDS011;5911;51.036;6.972;2023-02-23T00:49:14;38.30;;;33.70;;
11709;SDS011;5911;51.036;6.972;2023-02-23T00:51:42;38.13;;;33.97;;
11709;SDS011;5911;51.036;6.972;2023-02-23T00:54:11;42.80;;;35.23;;
11709;SDS011;5911;51.036;6.972;2023-02-23T00:56:40;38.43;;;34.23;;
11709;SDS011;5911;51.036;6.972;2023-02-23T00:59:08;37.07;;;33.10;;
11709;SDS011;5911;51.036;6.972;2023-02-23T01:01:36;39.83;;;34.53;;
11709;SDS011;5911;51.036;6.972;2023-02-23T01:04:08;43.13;;;37.30;;
11709;SDS011;5911;51.036;6.972;2023-02-23T01:06:38;38.77;;;34.57;;
11709;SDS011;5911;51.036;6.972;2023-02-23T01:09:08;39.97;;;34.40;;
11709;SDS011;5911;51.036;6.972;2023-02-23T01:11:38;40.87;;;35.03;;
11709;SDS011;5911;51.036;6.972;2023-02-23T01:14:08;39.90;;;34.20;;
11709;SDS011;5911;51.036;6.972;2023-02-23T01:16:36;42.10;;;35.67;;
11709;SDS011;5911;51.036;6.972;2023-02-23T01:19:06;39.77;;;34.70;;
11709;SDS011;5911;51.036;6.972;2023-02-23T01:21:35;41.33;;;35.23;;
11709;SDS011;5911;51.036;6.972;2023-02-23T01:24:12;41.10;;;35.50;;
11709;SDS011;5911;51.036;6.972;2023-02-23T01:26:41;38.67;;;34.43;;
11709;SDS011;5911;51.036;6.972;2023-02-23T01:29:10;40.40;;;35.80;;
11709;SDS011;5911;51.036;6.972;2023-02-23T01:31:41;43.10;;;38.00;;
11709;SDS011;5911;51.036;6.972;2023-02-23T01:34:10;43.10;;;36.93;;
11709;SDS011;5911;51.036;6.972;2023-02-23T01:36:42;39.20;;;34.87;;
11709;SDS011;5911;51.036;6.972;2023-02-23T01:39:11;37.90;;;33.37;;
11709;SDS011;5911;51.036;6.972;2023-02-23T01:41:40;39.07;;;33.90;;
11709;SDS011;5911;51.036;6.972;2023-02-23T01:47:12;45.47;;;37.30;;
11709;SDS011;5911;51.036;6.972;2023-02-23T01:49:42;40.73;;;35.47;;
11709;SDS011;5911;51.036;6.972;2023-02-23T01:52:12;43.67;;;36.77;;
11709;SDS011;5911;51.036;6.972;2023-02-23T01:54:44;44.70;;;38.03;;
11709;SDS011;5911;51.036;6.972;2023-02-23T01:57:16;43.97;;;37.00;;
11709;SDS011;5911;51.036;6.972;2023-02-23T01:59:47;44.90;;;36.63;;
11709;SDS011;5911;51.036;6.972;2023-02-23T02:02:16;45.63;;;38.23;;
11709;SDS011;5911;51.036;6.972;2023-02-23T02:04:46;42.67;;;36.90;;
11709;SDS011;5911;51.036;6.972;2023-02-23T02:07:20;47.50;;;38.23;;
11709;SDS011;5911;51.036;6.972;2023-02-23T02:09:51;45.70;;;37.50;;
11709;SDS011;5911;51.036;6.972;2023-02-23T02:12:35;42.93;;;36.73;;
11709;SDS011;5911;51.036;6.972;2023-02-23T02:15:04;41.23;;;35.87;;
11709;SDS011;5911;51.036;6.972;2023-02-23T02:17:43;46.13;;;37.53;;
11709;SDS011;5911;51.036;6.972;2023-02-23T02:26:54;44.40;;;36.50;;
11709;SDS011;5911;51.036;6.972;2023-02-23T02:29:42;49.20;;;38.10;;
11709;SDS011;5911;51.036;6.972;2023-02-23T02:35:52;46.70;;;40.60;;
11709;SDS011;5911;51.036;6.972;2023-02-23T02:38:46;46.30;;;38.33;;
11709;SDS011;5911;51.036;6.972;2023-02-23T02:41:22;45.50;;;40.43;;
11709;SDS011;5911;51.036;6.972;2023-02-23T02:44:01;51.37;;;41.87;;
11709;SDS011;5911;51.036;6.972;2023-02-23T02:46:37;46.93;;;40.63;;
11709;SDS011;5911;51.036;6.972;2023-02-23T02:49:09;47.83;;;40.03;;
11709;SDS011;5911;51.036;6.972;2023-02-23T02:51:46;42.43;;;37.37;;
11709;SDS011;5911;51.036;6.972;2023-02-23T02:54:21;43.10;;;38.13;;
11709;SDS011;5911;51.036;6.972;2023-02-23T02:56:52;47.10;;;40.23;;
11709;SDS011;5911;51.036;6.972;2023-02-23T02:59:26;42.30;;;37.37;;
11709;SDS011;5911;51.036;6.972;2023-02-23T03:02:14;43.30;;;37.47;;
11709;SDS011;5911;51.036;6.972;2023-02-23T03:05:01;46.03;;;37.67;;
11709;SDS011;5911;51.036;6.972;2023-02-23T03:07:58;46.57;;;40.10;;
11709;SDS011;5911;51.036;6.972;2023-02-23T03:10:55;47.17;;;39.77;;
11709;SDS011;5911;51.036;6.972;2023-02-23T03:13:47;52.47;;;40.37;;
11709;SDS011;5911;51.036;6.972;2023-02-23T03:16:48;47.77;;;38.60;;
11709;SDS011;5911;51.036;6.972;2023-02-23T03:19:47;49.10;;;40.27;;
11709;SDS011;5911;51.036;6.972;2023-02-23T03:22:41;47.93;;;39.60;;
11709;SDS011;5911;51.036;6.972;2023-02-23T03:25:40;48.10;;;39.27;;
11709;SDS011;5911;51.036;6.972;2023-02-23T03:28:34;46.37;;;40.20;;
11709;SDS011;5911;51.036;6.972;2023-02-23T03:31:26;44.23;;;38.63;;
11709;SDS011;5911;51.036;6.972;2023-02-23T03:34:21;47.83;;;40.43;;
11709;SDS011;5911;51.036;6.972;2023-02-23T03:37:13;49.30;;;40.57;;
11709;SDS011;5911;51.036;6.972;2023-02-23T03:40:09;49.73;;;40.73;;
11709;SDS011;5911;51.036;6.972;2023-02-23T03:42:58;48.40;;;40.23;;
11709;SDS011;5911;51.036;6.972;2023-02-23T03:45:47;49.57;;;41.60;;
11709;SDS011;5911;51.036;6.972;2023-02-23T03:48:33;47.20;;;40.40;;
11709;SDS011;5911;51.036;6.972;2023-02-23T03:51:21;48.03;;;41.00;;
11709;SDS011;5911;51.036;6.972;2023-02-23T03:54:10;48.20;;;39.97;;
11709;SDS011;5911;51.036;6.972;2023-02-23T03:57:00;48.97;;;39.50;;
11709;SDS011;5911;51.036;6.972;2023-02-23T03:59:49;48.03;;;39.17;;
11709;SDS011;5911;51.036;6.972;2023-02-23T04:02:40;49.33;;;41.13;;
11709;SDS011;5911;51.036;6.972;2023-02-23T04:05:27;48.23;;;39.93;;
11709;SDS011;5911;51.036;6.972;2023-02-23T04:08:16;52.20;;;40.93;;
11709;SDS011;5911;51.036;6.972;2023-02-23T04:11:06;49.67;;;42.27;;
11709;SDS011;5911;51.036;6.972;2023-02-23T04:13:59;51.57;;;42.10;;
11709;SDS011;5911;51.036;6.972;2023-02-23T04:16:32;52.73;;;42.40;;
11709;SDS011;5911;51.036;6.972;2023-02-23T04:19:01;53.67;;;42.83;;
11709;SDS011;5911;51.036;6.972;2023-02-23T04:21:29;52.97;;;42.90;;
11709;SDS011;5911;51.036;6.972;2023-02-23T04:23:57;49.07;;;42.37;;
11709;SDS011;5911;51.036;6.972;2023-02-23T04:26:25;51.53;;;41.67;;
11709;SDS011;5911;51.036;6.972;2023-02-23T04:28:53;51.07;;;42.90;;
11709;SDS011;5911;51.036;6.972;2023-02-23T04:31:20;47.83;;;40.33;;
11709;SDS011;5911;51.036;6.972;2023-02-23T04:33:50;47.10;;;41.13;;
11709;SDS011;5911;51.036;6.972;2023-02-23T04:36:19;51.60;;;42.50;;
11709;SDS011;5911;51.036;6.972;2023-02-23T04:38:49;48.73;;;42.40;;
11709;SDS011;5911;51.036;6.972;2023-02-23T04:41:17;48.33;;;40.73;;
11709;SDS011;5911;51.036;6.972;2023-02-23T04:43:45;49.27;;;41.50;;
11709;SDS011;5911;51.036;6.972;2023-02-23T04:46:13;48.30;;;41.07;;
11709;SDS011;5911;51.036;6.972;2023-02-23T04:48:41;52.27;;;42.20;;
11709;SDS011;5911;51.036;6.972;2023-02-23T04:51:09;51.97;;;43.30;;
11709;SDS011;5911;51.036;6.972;2023-02-23T04:53:38;55.70;;;43.63;;
11709;SDS011;5911;51.036;6.972;2023-02-23T04:56:06;55.47;;;43.63;;
11709;SDS011;5911;51.036;6.972;2023-02-23T04:58:33;56.10;;;42.13;;
11709;SDS011;5911;51.036;6.972;2023-02-23T05:01:04;58.53;;;43.37;;
11709;SDS011;5911;51.036;6.972;2023-02-23T05:03:33;59.90;;;43.53;;
11709;SDS011;5911;51.036;6.972;2023-02-23T05:06:01;60.73;;;44.80;;
11709;SDS011;5911;51.036;6.972;2023-02-23T05:08:29;60.00;;;43.33;;
11709;SDS011;5911;51.036;6.972;2023-02-23T05:10:58;60.23;;;44.50;;
11709;SDS011;5911;51.036;6.972;2023-02-23T05:13:26;59.07;;;43.80;;
11709;SDS011;5911;51.036;6.972;2023-02-23T05:15:55;62.03;;;44.03;;
11709;SDS011;5911;51.036;6.972;2023-02-23T05:18:24;63.40;;;44.73;;
11709;SDS011;5911;51.036;6.972;2023-02-23T05:21:00;65.20;;;46.13;;
11709;SDS011;5911;51.036;6.972;2023-02-23T05:23:28;60.37;;;43.50;;
11709;SDS011;5911;51.036;6.972;2023-02-23T05:25:59;60.83;;;45.33;;
11709;SDS011;5911;51.036;6.972;2023-02-23T05:28:32;64.47;;;44.50;;
11709;SDS011;5911;51.036;6.972;2023-02-23T05:31:04;62.17;;;44.00;;
11709;SDS011;5911;51.036;6.972;2023-02-23T05:33:33;62.00;;;46.13;;
11709;SDS011;5911;51.036;6.972;2023-02-23T05:36:07;64.90;;;46.93;;
11709;SDS011;5911;51.036;6.972;2023-02-23T05:38:37;65.13;;;46.50;;
11709;SDS011;5911;51.036;6.972;2023-02-23T05:41:07;62.70;;;45.63;;
11709;SDS011;5911;51.036;6.972;2023-02-23T05:43:35;68.07;;;46.97;;
11709;SDS011;5911;51.036;6.972;2023-02-23T05:46:04;62.60;;;45.77;;
11709;SDS011;5911;51.036;6.972;2023-02-23T05:48:33;62.80;;;44.37;;
11709;SDS011;5911;51.036;6.972;2023-02-23T05:51:01;65.90;;;46.67;;
11709;SDS011;5911;51.036;6.972;2023-02-23T05:53:30;65.10;;;45.93;;
11709;SDS011;5911;51.036;6.972;2023-02-23T05:55:58;69.87;;;45.67;;
11709;SDS011;5911;51.036;6.972;2023-02-23T05:58:27;65.53;;;47.27;;
11709;SDS011;5911;51.036;6.972;2023-02-23T06:00:55;66.53;;;47.17;;
11709;SDS011;5911;51.036;6.972;2023-02-23T06:03:23;67.20;;;46.37;;
11709;SDS011;5911;51.036;6.972;2023-02-23T06:05:52;64.77;;;46.17;;
11709;SDS011;5911;51.036;6.972;2023-02-23T06:08:22;70.73;;;48.70;;
11709;SDS011;5911;51.036;6.972;2023-02-23T06:10:50;71.37;;;48.17;;
11709;SDS011;5911;51.036;6.972;2023-02-23T06:13:18;65.20;;;46.40;;
11709;SDS011;5911;51.036;6.972;2023-02-23T06:15:48;68.90;;;48.13;;
11709;SDS011;5911;51.036;6.972;2023-02-23T06:18:16;66.40;;;45.67;;
11709;SDS011;5911;51.036;6.972;2023-02-23T06:20:44;64.60;;;45.93;;
11709;SDS011;5911;51.036;6.972;2023-02-23T06:23:12;68.07;;;46.13;;
11709;SDS011;5911;51.036;6.972;2023-02-23T06:25:41;69.30;;;46.23;;
11709;SDS011;5911;51.036;6.972;2023-02-23T06:28:09;68.83;;;47.77;;
11709;SDS011;5911;51.036;6.972;2023-02-23T06:30:37;67.10;;;47.03;;
11709;SDS011;5911;51.036;6.972;2023-02-23T06:33:07;67.37;;;46.73;;
11709;SDS011;5911;51.036;6.972;2023-02-23T06:35:34;66.40;;;47.00;;
11709;SDS011;5911;51.036;6.972;2023-02-23T06:38:02;60.73;;;44.23;;
11709;SDS011;5911;51.036;6.972;2023-02-23T06:40:31;64.73;;;46.60;;
11709;SDS011;5911;51.036;6.972;2023-02-23T06:42:59;65.43;;;47.17;;
11709;SDS011;5911;51.036;6.972;2023-02-23T06:45:28;66.17;;;46.87;;
11709;SDS011;5911;51.036;6.972;2023-02-23T06:47:57;68.60;;;48.07;;
11709;SDS011;5911;51.036;6.972;2023-02-23T06:50:26;64.47;;;47.20;;
11709;SDS011;5911;51.036;6.972;2023-02-23T06:52:54;69.77;;;48.03;;
11709;SDS011;5911;51.036;6.972;2023-02-23T06:55:22;63.73;;;46.77;;
11709;SDS011;5911;51.036;6.972;2023-02-23T06:57:50;64.30;;;46.10;;
11709;SDS011;5911;51.036;6.972;2023-02-23T07:00:19;64.23;;;46.60;;
11709;SDS011;5911;51.036;6.972;2023-02-23T07:02:48;64.53;;;45.87;;
11709;SDS011;5911;51.036;6.972;2023-02-23T07:05:16;63.13;;;45.63;;
11709;SDS011;5911;51.036;6.972;2023-02-23T07:07:45;59.83;;;45.10;;
11709;SDS011;5911;51.036;6.972;2023-02-23T07:10:13;59.43;;;44.67;;
11709;SDS011;5911;51.036;6.972;2023-02-23T07:12:41;63.57;;;44.57;;
11709;SDS011;5911;51.036;6.972;2023-02-23T07:15:09;61.57;;;44.90;;
11709;SDS011;5911;51.036;6.972;2023-02-23T07:17:37;63.73;;;45.73;;
11709;SDS011;5911;51.036;6.972;2023-02-23T07:20:05;58.73;;;43.57;;
11709;SDS011;5911;51.036;6.972;2023-02-23T07:22:34;57.63;;;43.27;;
11709;SDS011;5911;51.036;6.972;2023-02-23T07:25:06;63.13;;;45.03;;
11709;SDS011;5911;51.036;6.972;2023-02-23T07:27:35;61.17;;;45.07;;
11709;SDS011;5911;51.036;6.972;2023-02-23T07:30:03;58.67;;;42.37;;
11709;SDS011;5911;51.036;6.972;2023-02-23T07:32:31;63.00;;;46.40;;
11709;SDS011;5911;51.036;6.972;2023-02-23T07:34:59;63.53;;;45.33;;
11709;SDS011;5911;51.036;6.972;2023-02-23T07:37:27;62.70;;;44.80;;
11709;SDS011;5911;51.036;6.972;2023-02-23T07:39:55;61.53;;;44.37;;
11709;SDS011;5911;51.036;6.972;2023-02-23T07:42:27;62.77;;;44.47;;
11709;SDS011;5911;51.036;6.972;2023-02-23T07:44:55;62.13;;;44.30;;
11709;SDS011;5911;51.036;6.972;2023-02-23T07:47:23;62.40;;;45.53;;
11709;SDS011;5911;51.036;6.972;2023-02-23T07:49:56;60.80;;;43.10;;
11709;SDS011;5911;51.036;6.972;2023-02-23T07:52:25;61.53;;;45.37;;
11709;SDS011;5911;51.036;6.972;2023-02-23T07:54:53;65.13;;;44.50;;
11709;SDS011;5911;51.036;6.972;2023-02-23T07:57:21;65.67;;;46.10;;
11709;SDS011;5911;51.036;6.972;2023-02-23T07:59:51;68.07;;;45.60;;
11709;SDS011;5911;51.036;6.972;2023-02-23T08:02:19;58.57;;;43.27;;
11709;SDS011;5911;51.036;6.972;2023-02-23T08:04:47;62.10;;;45.23;;
11709;SDS011;5911;51.036;6.972;2023-02-23T08:07:15;61.00;;;44.87;;
11709;SDS011;5911;51.036;6.972;2023-02-23T08:09:43;62.00;;;44.80;;
11709;SDS011;5911;51.036;6.972;2023-02-23T08:12:11;61.07;;;46.67;;
11709;SDS011;5911;51.036;6.972;2023-02-23T08:14:40;65.37;;;45.93;;
11709;SDS011;5911;51.036;6.972;2023-02-23T08:17:10;61.33;;;45.20;;
11709;SDS011;5911;51.036;6.972;2023-02-23T08:19:38;62.37;;;44.97;;
11709;SDS011;5911;51.036;6.972;2023-02-23T08:22:06;63.90;;;46.10;;
11709;SDS011;5911;51.036;6.972;2023-02-23T08:24:35;61.27;;;44.07;;
11709;SDS011;5911;51.036;6.972;2023-02-23T08:27:03;58.80;;;44.63;;
11709;SDS011;5911;51.036;6.972;2023-02-23T08:29:31;61.37;;;43.47;;
11709;SDS011;5911;51.036;6.972;2023-02-23T08:32:00;59.97;;;45.13;;
11709;SDS011;5911;51.036;6.972;2023-02-23T08:34:30;62.17;;;44.90;;
11709;SDS011;5911;51.036;6.972;2023-02-23T08:36:58;61.27;;;43.43;;
11709;SDS011;5911;51.036;6.972;2023-02-23T08:39:26;63.67;;;43.23;;
11709;SDS011;5911;51.036;6.972;2023-02-23T08:41:54;61.13;;;42.77;;
11709;SDS011;5911;51.036;6.972;2023-02-23T08:44:22;57.17;;;42.63;;
11709;SDS011;5911;51.036;6.972;2023-02-23T08:46:50;61.17;;;41.60;;
11709;SDS011;5911;51.036;6.972;2023-02-23T08:49:20;54.90;;;40.77;;
11709;SDS011;5911;51.036;6.972;2023-02-23T08:51:49;53.27;;;39.20;;
11709;SDS011;5911;51.036;6.972;2023-02-23T08:54:18;54.27;;;39.53;;
11709;SDS011;5911;51.036;6.972;2023-02-23T08:56:45;45.77;;;35.90;;
11709;SDS011;5911;51.036;6.972;2023-02-23T08:59:13;52.27;;;39.07;;
11709;SDS011;5911;51.036;6.972;2023-02-23T09:01:41;47.93;;;37.20;;
11709;SDS011;5911;51.036;6.972;2023-02-23T09:04:09;48.23;;;37.57;;
11709;SDS011;5911;51.036;6.972;2023-02-23T09:06:37;51.33;;;37.33;;
11709;SDS011;5911;51.036;6.972;2023-02-23T09:09:07;44.73;;;35.73;;
11709;SDS011;5911;51.036;6.972;2023-02-23T09:11:35;45.47;;;34.40;;
11709;SDS011;5911;51.036;6.972;2023-02-23T09:14:03;47.63;;;36.50;;
11709;SDS011;5911;51.036;6.972;2023-02-23T09:16:31;45.17;;;36.37;;
11709;SDS011;5911;51.036;6.972;2023-02-23T09:18:59;41.00;;;34.53;;
11709;SDS011;5911;51.036;6.972;2023-02-23T09:21:27;41.80;;;34.33;;
11709;SDS011;5911;51.036;6.972;2023-02-23T09:23:55;46.30;;;36.27;;
11709;SDS011;5911;51.036;6.972;2023-02-23T09:26:27;43.77;;;35.83;;
11709;SDS011;5911;51.036;6.972;2023-02-23T09:28:55;43.63;;;35.60;;
11709;SDS011;5911;51.036;6.972;2023-02-23T09:31:25;45.40;;;35.17;;
11709;SDS011;5911;51.036;6.972;2023-02-23T09:33:54;45.57;;;34.63;;
11709;SDS011;5911;51.036;6.972;2023-02-23T09:36:23;40.37;;;33.13;;
11709;SDS011;5911;51.036;6.972;2023-02-23T09:38:52;40.53;;;32.77;;
11709;SDS011;5911;51.036;6.972;2023-02-23T09:41:36;42.87;;;34.47;;
11709;SDS011;5911;51.036;6.972;2023-02-23T09:44:25;39.17;;;32.27;;
11709;SDS011;5911;51.036;6.972;2023-02-23T09:47:03;38.83;;;32.40;;
11709;SDS011;5911;51.036;6.972;2023-02-23T09:49:39;38.43;;;32.33;;
11709;SDS011;5911;51.036;6.972;2023-02-23T09:52:09;38.50;;;31.10;;
11709;SDS011;5911;51.036;6.972;2023-02-23T09:54:45;39.37;;;32.17;;
11709;SDS011;5911;51.036;6.972;2023-02-23T09:57:15;40.63;;;33.00;;
11709;SDS011;5911;51.036;6.972;2023-02-23T09:59:49;38.73;;;31.10;;
11709;SDS011;5911;51.036;6.972;2023-02-23T10:02:19;37.43;;;30.60;;
11709;SDS011;5911;51.036;6.972;2023-02-23T10:04:51;38.90;;;31.87;;
11709;SDS011;5911;51.036;6.972;2023-02-23T10:07:25;37.03;;;31.13;;
11709;SDS011;5911;51.036;6.972;2023-02-23T10:10:11;36.43;;;30.77;;
11709;SDS011;5911;51.036;6.972;2023-02-23T10:12:56;39.17;;;33.33;;
11709;SDS011;5911;51.036;6.972;2023-02-23T10:15:31;43.20;;;34.60;;
11709;SDS011;5911;51.036;6.972;2023-02-23T10:18:08;42.60;;;33.73;;
11709;SDS011;5911;51.036;6.972;2023-02-23T10:20:43;42.83;;;33.97;;
11709;SDS011;5911;51.036;6.972;2023-02-23T10:23:18;42.73;;;34.87;;
11709;SDS011;5911;51.036;6.972;2023-02-23T10:25:57;41.60;;;32.33;;
11709;SDS011;5911;51.036;6.972;2023-02-23T10:28:29;41.27;;;31.87;;
11709;SDS011;5911;51.036;6.972;2023-02-23T10:31:00;43.00;;;32.40;;
11709;SDS011;5911;51.036;6.972;2023-02-23T10:33:32;40.27;;;31.83;;
11709;SDS011;5911;51.036;6.972;2023-02-23T10:36:09;40.43;;;32.00;;
11709;SDS011;5911;51.036;6.972;2023-02-23T10:38:41;41.87;;;32.13;;
11709;SDS011;5911;51.036;6.972;2023-02-23T10:41:09;42.73;;;32.30;;
11709;SDS011;5911;51.036;6.972;2023-02-23T10:43:41;42.60;;;32.70;;
11709;SDS011;5911;51.036;6.972;2023-02-23T10:46:10;45.13;;;33.53;;
11709;SDS011;5911;51.036;6.972;2023-02-23T10:48:47;40.50;;;32.93;;
11709;SDS011;5911;51.036;6.972;2023-02-23T10:51:18;40.67;;;31.13;;
11709;SDS011;5911;51.036;6.972;2023-02-23T10:53:51;39.37;;;29.43;;
11709;SDS011;5911;51.036;6.972;2023-02-23T10:56:20;40.27;;;30.83;;
11709;SDS011;5911;51.036;6.972;2023-02-23T10:58:51;42.47;;;31.13;;
11709;SDS011;5911;51.036;6.972;2023-02-23T11:01:31;36.60;;;28.93;;
11709;SDS011;5911;51.036;6.972;2023-02-23T11:04:11;41.93;;;30.27;;
11709;SDS011;5911;51.036;6.972;2023-02-23T11:06:42;37.80;;;28.80;;
11709;SDS011;5911;51.036;6.972;2023-02-23T11:09:21;38.23;;;27.90;;
11709;SDS011;5911;51.036;6.972;2023-02-23T11:12:17;38.47;;;28.03;;
11709;SDS011;5911;51.036;6.972;2023-02-23T11:14:50;36.43;;;26.50;;
11709;SDS011;5911;51.036;6.972;2023-02-23T11:17:23;38.80;;;29.07;;
11709;SDS011;5911;51.036;6.972;2023-02-23T11:19:58;38.83;;;29.53;;
11709;SDS011;5911;51.036;6.972;2023-02-23T11:22:32;40.80;;;29.87;;
11709;SDS011;5911;51.036;6.972;2023-02-23T11:25:03;42.37;;;29.63;;
11709;SDS011;5911;51.036;6.972;2023-02-23T11:27:44;44.63;;;31.33;;
11709;SDS011;5911;51.036;6.972;2023-02-23T11:30:19;45.63;;;32.97;;
11709;SDS011;5911;51.036;6.972;2023-02-23T11:32:50;48.50;;;33.17;;
11709;SDS011;5911;51.036;6.972;2023-02-23T11:35:25;47.03;;;32.23;;
11709;SDS011;5911;51.036;6.972;2023-02-23T11:37:56;49.20;;;32.50;;
11709;SDS011;5911;51.036;6.972;2023-02-23T11:40:24;52.23;;;33.87;;
11709;SDS011;5911;51.036;6.972;2023-02-23T11:42:54;51.70;;;33.93;;
11709;SDS011;5911;51.036;6.972;2023-02-23T11:45:25;51.13;;;32.37;;
11709;SDS011;5911;51.036;6.972;2023-02-23T11:48:03;51.80;;;32.67;;
11709;SDS011;5911;51.036;6.972;2023-02-23T11:50:32;53.17;;;34.27;;
11709;SDS011;5911;51.036;6.972;2023-02-23T11:53:02;55.40;;;34.10;;
11709;SDS011;5911;51.036;6.972;2023-02-23T11:55:32;53.67;;;34.27;;
11709;SDS011;5911;51.036;6.972;2023-02-23T11:58:14;54.37;;;36.27;;
11709;SDS011;5911;51.036;6.972;2023-02-23T12:00:56;55.23;;;33.77;;
11709;SDS011;5911;51.036;6.972;2023-02-23T12:03:26;55.37;;;32.97;;
11709;SDS011;5911;51.036;6.972;2023-02-23T12:05:58;58.93;;;35.57;;
11709;SDS011;5911;51.036;6.972;2023-02-23T12:08:32;55.83;;;33.20;;
11709;SDS011;5911;51.036;6.972;2023-02-23T12:11:05;57.13;;;33.97;;
11709;SDS011;5911;51.036;6.972;2023-02-23T12:13:39;55.33;;;33.27;;
11709;SDS011;5911;51.036;6.972;2023-02-23T12:16:13;60.27;;;36.47;;
11709;SDS011;5911;51.036;6.972;2023-02-23T12:18:46;60.07;;;36.37;;
11709;SDS011;5911;51.036;6.972;2023-02-23T12:21:23;56.13;;;34.80;;
11709;SDS011;5911;51.036;6.972;2023-02-23T12:24:00;59.17;;;35.60;;
11709;SDS011;5911;51.036;6.972;2023-02-23T12:26:39;57.17;;;33.50;;
11709;SDS011;5911;51.036;6.972;2023-02-23T12:29:15;58.77;;;36.00;;
11709;SDS011;5911;51.036;6.972;2023-02-23T12:31:51;54.83;;;34.10;;
11709;SDS011;5911;51.036;6.972;2023-02-23T12:34:25;60.10;;;35.00;;
11709;SDS011;5911;51.036;6.972;2023-02-23T12:36:58;60.67;;;35.67;;
11709;SDS011;5911;51.036;6.972;2023-02-23T12:39:34;54.73;;;33.07;;
11709;SDS011;5911;51.036;6.972;2023-02-23T12:42:08;54.90;;;31.50;;
11709;SDS011;5911;51.036;6.972;2023-02-23T12:44:49;52.83;;;31.07;;
11709;SDS011;5911;51.036;6.972;2023-02-23T12:47:31;46.13;;;28.60;;
11709;SDS011;5911;51.036;6.972;2023-02-23T12:50:03;48.77;;;29.00;;
11709;SDS011;5911;51.036;6.972;2023-02-23T12:52:39;47.73;;;29.17;;
11709;SDS011;5911;51.036;6.972;2023-02-23T12:55:14;45.70;;;28.83;;
11709;SDS011;5911;51.036;6.972;2023-02-23T12:57:50;45.50;;;29.07;;
11709;SDS011;5911;51.036;6.972;2023-02-23T13:00:30;46.60;;;28.27;;
11709;SDS011;5911;51.036;6.972;2023-02-23T13:06:14;48.07;;;28.97;;
11709;SDS011;5911;51.036;6.972;2023-02-23T13:08:53;44.90;;;28.67;;
11709;SDS011;5911;51.036;6.972;2023-02-23T13:11:37;46.43;;;28.83;;
11709;SDS011;5911;51.036;6.972;2023-02-23T13:14:19;50.53;;;31.07;;
11709;SDS011;5911;51.036;6.972;2023-02-23T13:16:53;50.70;;;29.57;;
11709;SDS011;5911;51.036;6.972;2023-02-23T13:19:28;45.67;;;29.77;;
11709;SDS011;5911;51.036;6.972;2023-02-23T13:22:06;45.17;;;27.53;;
11709;SDS011;5911;51.036;6.972;2023-02-23T13:24:50;41.73;;;25.90;;
11709;SDS011;5911;51.036;6.972;2023-02-23T13:27:22;43.77;;;26.30;;
11709;SDS011;5911;51.036;6.972;2023-02-23T13:29:55;37.60;;;23.13;;
11709;SDS011;5911;51.036;6.972;2023-02-23T13:32:25;34.97;;;22.17;;
11709;SDS011;5911;51.036;6.972;2023-02-23T13:34:59;33.33;;;21.80;;
11709;SDS011;5911;51.036;6.972;2023-02-23T13:37:29;32.73;;;21.90;;
11709;SDS011;5911;51.036;6.972;2023-02-23T13:40:15;30.10;;;19.77;;
11709;SDS011;5911;51.036;6.972;2023-02-23T13:42:54;30.00;;;20.33;;
11709;SDS011;5911;51.036;6.972;2023-02-23T13:45:39;31.73;;;20.43;;
11709;SDS011;5911;51.036;6.972;2023-02-23T13:48:36;34.10;;;20.93;;
11709;SDS011;5911;51.036;6.972;2023-02-23T13:51:27;31.40;;;19.93;;
11709;SDS011;5911;51.036;6.972;2023-02-23T13:54:03;29.43;;;20.20;;
11709;SDS011;5911;51.036;6.972;2023-02-23T13:56:35;31.00;;;19.77;;
11709;SDS011;5911;51.036;6.972;2023-02-23T13:59:08;30.53;;;19.73;;
11709;SDS011;5911;51.036;6.972;2023-02-23T14:01:43;30.37;;;19.73;;
11709;SDS011;5911;51.036;6.972;2023-02-23T14:04:15;32.60;;;20.03;;
11709;SDS011;5911;51.036;6.972;2023-02-23T14:06:53;31.70;;;20.60;;
11709;SDS011;5911;51.036;6.972;2023-02-23T14:09:27;30.47;;;20.37;;
11709;SDS011;5911;51.036;6.972;2023-02-23T14:12:04;29.13;;;19.90;;
11709;SDS011;5911;51.036;6.972;2023-02-23T14:14:44;32.07;;;19.77;;
11709;SDS011;5911;51.036;6.972;2023-02-23T14:20:13;28.73;;;18.43;;
11709;SDS011;5911;51.036;6.972;2023-02-23T14:23:14;27.85;;;17.52;;
11709;SDS011;5911;51.036;6.972;2023-02-23T14:26:07;25.57;;;18.00;;
11709;SDS011;5911;51.036;6.972;2023-02-23T14:28:38;27.50;;;17.80;;
11709;SDS011;5911;51.036;6.972;2023-02-23T14:31:16;24.27;;;16.40;;
11709;SDS011;5911;51.036;6.972;2023-02-23T14:33:49;27.50;;;16.67;;
11709;SDS011;5911;51.036;6.972;2023-02-23T14:36:28;23.23;;;15.30;;
11709;SDS011;5911;51.036;6.972;2023-02-23T14:39:08;22.43;;;14.93;;
11709;SDS011;5911;51.036;6.972;2023-02-23T14:41:42;24.50;;;16.37;;
11709;SDS011;5911;51.036;6.972;2023-02-23T14:44:16;25.80;;;16.33;;
11709;SDS011;5911;51.036;6.972;2023-02-23T14:46:56;26.57;;;18.57;;
11709;SDS011;5911;51.036;6.972;2023-02-23T14:49:30;25.73;;;18.07;;
11709;SDS011;5911;51.036;6.972;2023-02-23T14:52:04;26.97;;;18.53;;
11709;SDS011;5911;51.036;6.972;2023-02-23T14:54:34;26.57;;;18.27;;
11709;SDS011;5911;51.036;6.972;2023-02-23T14:57:04;27.27;;;18.60;;
11709;SDS011;5911;51.036;6.972;2023-02-23T14:59:35;25.33;;;18.33;;
11709;SDS011;5911;51.036;6.972;2023-02-23T15:02:08;27.63;;;18.60;;
11709;SDS011;5911;51.036;6.972;2023-02-23T15:04:38;29.00;;;19.27;;
11709;SDS011;5911;51.036;6.972;2023-02-23T15:07:08;25.67;;;18.07;;
11709;SDS011;5911;51.036;6.972;2023-02-23T15:09:45;25.63;;;17.50;;
11709;SDS011;5911;51.036;6.972;2023-02-23T15:12:14;27.07;;;17.77;;
11709;SDS011;5911;51.036;6.972;2023-02-23T15:14:46;28.73;;;18.77;;
11709;SDS011;5911;51.036;6.972;2023-02-23T15:17:17;27.97;;;18.60;;
11709;SDS011;5911;51.036;6.972;2023-02-23T15:19:47;33.40;;;19.77;;
11709;SDS011;5911;51.036;6.972;2023-02-23T15:22:38;29.23;;;19.10;;
11709;SDS011;5911;51.036;6.972;2023-02-23T15:25:12;30.17;;;20.43;;
11709;SDS011;5911;51.036;6.972;2023-02-23T15:27:43;28.23;;;20.30;;
11709;SDS011;5911;51.036;6.972;2023-02-23T15:30:19;29.33;;;20.97;;